Terminal Aerodrome Forecast
Issued by NWS

Home | Current Version | Previous Version | Text Only | Print | Product List | Glossary On
Versions: 1 2 3 4 5 6 7 8 9 10 11 12 13 14 15 16 17 18 19 20 21
000
FTUS45 KBOU 240534
TAFAPA
TAF
KAPA 240534Z 2406/2506 25010KT P6SM SCT070 BKN120
     FM240800 21007KT P6SM SCT070 BKN100
     FM241100 18010KT P6SM VCSH SCT060 BKN100 OVC150
     FM241700 13012KT P6SM SCT080 BKN150 PROB30 2421/2501 VRB15G25KT
      -TSRA BKN060CB
     FM250200 12012KT P6SM SCT050 BKN080=

USA.gov is the U.S. government's official web portal to all federal, state and local government web resources and services.